sensor_id;sensor_type;location;lat;lon;timestamp;temperature;humidity
37658;DHT22;23500;53.268;8.308;2023-05-29T00:00:57;22.50;59.80
37658;DHT22;23500;53.268;8.308;2023-05-29T00:03:23;22.50;59.80
37658;DHT22;23500;53.268;8.308;2023-05-29T00:05:48;22.50;59.80
37658;DHT22;23500;53.268;8.308;2023-05-29T00:08:14;22.50;59.80
37658;DHT22;23500;53.268;8.308;2023-05-29T00:10:41;22.40;59.80
37658;DHT22;23500;53.268;8.308;2023-05-29T00:13:06;22.40;59.80
37658;DHT22;23500;53.268;8.308;2023-05-29T00:15:32;22.40;59.80
37658;DHT22;23500;53.268;8.308;2023-05-29T00:17:58;22.40;59.80
37658;DHT22;23500;53.268;8.308;2023-05-29T00:20:24;22.40;59.90
37658;DHT22;23500;53.268;8.308;2023-05-29T00:22:50;22.40;59.80
37658;DHT22;23500;53.268;8.308;2023-05-29T00:25:15;22.40;59.80
37658;DHT22;23500;53.268;8.308;2023-05-29T00:27:42;22.40;60.50
37658;DHT22;23500;53.268;8.308;2023-05-29T00:30:08;22.40;59.90
37658;DHT22;23500;53.268;8.308;2023-05-29T00:32:34;22.30;59.90
37658;DHT22;23500;53.268;8.308;2023-05-29T00:34:59;22.40;59.90
37658;DHT22;23500;53.268;8.308;2023-05-29T00:37:25;22.40;59.90
37658;DHT22;23500;53.268;8.308;2023-05-29T00:39:51;22.30;59.90
37658;DHT22;23500;53.268;8.308;2023-05-29T00:42:17;22.30;59.90
37658;DHT22;23500;53.268;8.308;2023-05-29T00:44:43;22.30;59.90
37658;DHT22;23500;53.268;8.308;2023-05-29T00:47:09;22.30;59.90
37658;DHT22;23500;53.268;8.308;2023-05-29T00:49:36;22.30;59.90
37658;DHT22;23500;53.268;8.308;2023-05-29T00:52:04;22.30;59.90
37658;DHT22;23500;53.268;8.308;2023-05-29T00:54:32;22.30;59.90
37658;DHT22;23500;53.268;8.308;2023-05-29T00:56:58;22.30;59.90
37658;DHT22;23500;53.268;8.308;2023-05-29T00:59:30;22.30;59.90
37658;DHT22;23500;53.268;8.308;2023-05-29T01:01:57;22.30;60.00
37658;DHT22;23500;53.268;8.308;2023-05-29T01:04:26;22.30;60.00
37658;DHT22;23500;53.268;8.308;2023-05-29T01:06:52;22.20;60.00
37658;DHT22;23500;53.268;8.308;2023-05-29T01:09:17;22.20;60.00
37658;DHT22;23500;53.268;8.308;2023-05-29T01:11:53;22.20;60.00
37658;DHT22;23500;53.268;8.308;2023-05-29T01:14:29;22.20;60.00
37658;DHT22;23500;53.268;8.308;2023-05-29T01:17:28;22.20;60.00
37658;DHT22;23500;53.268;8.308;2023-05-29T01:23:07;22.20;60.10
37658;DHT22;23500;53.268;8.308;2023-05-29T01:28:09;22.20;60.20
37658;DHT22;23500;53.268;8.308;2023-05-29T01:30:37;22.10;60.10
37658;DHT22;23500;53.268;8.308;2023-05-29T01:33:03;22.10;60.10
37658;DHT22;23500;53.268;8.308;2023-05-29T01:35:29;22.10;60.10
37658;DHT22;23500;53.268;8.308;2023-05-29T01:37:55;22.10;60.20
37658;DHT22;23500;53.268;8.308;2023-05-29T01:40:21;22.10;60.20
37658;DHT22;23500;53.268;8.308;2023-05-29T01:42:47;22.10;60.20
37658;DHT22;23500;53.268;8.308;2023-05-29T01:45:13;22.10;60.20
37658;DHT22;23500;53.268;8.308;2023-05-29T01:47:39;22.10;60.20
37658;DHT22;23500;53.268;8.308;2023-05-29T01:50:06;22.10;60.20
37658;DHT22;23500;53.268;8.308;2023-05-29T01:52:32;22.10;60.20
37658;DHT22;23500;53.268;8.308;2023-05-29T01:54:58;22.10;60.20
37658;DHT22;23500;53.268;8.308;2023-05-29T01:57:24;22.10;60.20
37658;DHT22;23500;53.268;8.308;2023-05-29T01:59:51;22.10;60.20
37658;DHT22;23500;53.268;8.308;2023-05-29T02:02:17;22.10;60.20
37658;DHT22;23500;53.268;8.308;2023-05-29T02:04:43;22.10;60.20
37658;DHT22;23500;53.268;8.308;2023-05-29T02:07:08;22.10;60.20
37658;DHT22;23500;53.268;8.308;2023-05-29T02:09:35;22.00;60.10
37658;DHT22;23500;53.268;8.308;2023-05-29T02:12:01;22.00;60.20
37658;DHT22;23500;53.268;8.308;2023-05-29T02:14:27;22.00;60.20
37658;DHT22;23500;53.268;8.308;2023-05-29T02:16:53;22.00;60.20
37658;DHT22;23500;53.268;8.308;2023-05-29T02:19:19;22.00;60.20
37658;DHT22;23500;53.268;8.308;2023-05-29T02:21:46;22.00;60.20
37658;DHT22;23500;53.268;8.308;2023-05-29T02:24:12;22.00;60.20
37658;DHT22;23500;53.268;8.308;2023-05-29T02:26:38;22.00;60.20
37658;DHT22;23500;53.268;8.308;2023-05-29T02:29:03;22.00;60.30
37658;DHT22;23500;53.268;8.308;2023-05-29T02:31:32;22.00;60.30
37658;DHT22;23500;53.268;8.308;2023-05-29T02:33:58;22.00;60.30
37658;DHT22;23500;53.268;8.308;2023-05-29T02:36:24;21.90;60.20
37658;DHT22;23500;53.268;8.308;2023-05-29T02:38:50;21.90;60.30
37658;DHT22;23500;53.268;8.308;2023-05-29T02:41:16;21.90;60.20
37658;DHT22;23500;53.268;8.308;2023-05-29T02:43:42;21.90;60.30
37658;DHT22;23500;53.268;8.308;2023-05-29T02:46:08;21.90;60.30
37658;DHT22;23500;53.268;8.308;2023-05-29T02:48:33;21.90;60.30
37658;DHT22;23500;53.268;8.308;2023-05-29T02:50:59;21.90;60.40
37658;DHT22;23500;53.268;8.308;2023-05-29T02:53:25;21.90;60.30
37658;DHT22;23500;53.268;8.308;2023-05-29T02:55:51;21.90;60.40
37658;DHT22;23500;53.268;8.308;2023-05-29T02:58:17;21.90;60.40
37658;DHT22;23500;53.268;8.308;2023-05-29T03:00:42;21.90;60.40
37658;DHT22;23500;53.268;8.308;2023-05-29T03:03:08;21.90;60.40
37658;DHT22;23500;53.268;8.308;2023-05-29T03:05:34;21.90;60.40
37658;DHT22;23500;53.268;8.308;2023-05-29T03:08:00;21.90;60.40
37658;DHT22;23500;53.268;8.308;2023-05-29T03:10:26;21.80;60.30
37658;DHT22;23500;53.268;8.308;2023-05-29T03:12:52;21.80;60.30
37658;DHT22;23500;53.268;8.308;2023-05-29T03:15:17;21.80;60.40
37658;DHT22;23500;53.268;8.308;2023-05-29T03:17:46;21.80;60.40
37658;DHT22;23500;53.268;8.308;2023-05-29T03:20:12;21.80;60.40
37658;DHT22;23500;53.268;8.308;2023-05-29T03:22:38;21.80;60.40
37658;DHT22;23500;53.268;8.308;2023-05-29T03:25:05;21.80;60.40
37658;DHT22;23500;53.268;8.308;2023-05-29T03:27:31;21.80;60.40
37658;DHT22;23500;53.268;8.308;2023-05-29T03:29:57;21.80;60.40
37658;DHT22;23500;53.268;8.308;2023-05-29T03:32:23;21.80;60.50
37658;DHT22;23500;53.268;8.308;2023-05-29T03:34:49;21.80;60.40
37658;DHT22;23500;53.268;8.308;2023-05-29T03:37:15;21.80;60.50
37658;DHT22;23500;53.268;8.308;2023-05-29T03:39:41;21.80;60.50
37658;DHT22;23500;53.268;8.308;2023-05-29T03:42:07;21.80;60.40
37658;DHT22;23500;53.268;8.308;2023-05-29T03:44:32;21.70;60.40
37658;DHT22;23500;53.268;8.308;2023-05-29T03:46:58;21.80;60.50
37658;DHT22;23500;53.268;8.308;2023-05-29T03:49:24;21.70;60.40
37658;DHT22;23500;53.268;8.308;2023-05-29T03:51:50;21.70;60.40
37658;DHT22;23500;53.268;8.308;2023-05-29T03:54:16;21.70;60.40
37658;DHT22;23500;53.268;8.308;2023-05-29T03:56:42;21.70;60.40
37658;DHT22;23500;53.268;8.308;2023-05-29T03:59:08;21.70;60.40
37658;DHT22;23500;53.268;8.308;2023-05-29T04:01:34;21.70;60.40
37658;DHT22;23500;53.268;8.308;2023-05-29T04:04:00;21.70;60.40
37658;DHT22;23500;53.268;8.308;2023-05-29T04:06:26;21.70;60.40
37658;DHT22;23500;53.268;8.308;2023-05-29T04:08:52;21.70;60.50
37658;DHT22;23500;53.268;8.308;2023-05-29T04:11:18;21.70;60.40
37658;DHT22;23500;53.268;8.308;2023-05-29T04:13:46;21.70;61.00
37658;DHT22;23500;53.268;8.308;2023-05-29T04:16:13;21.80;60.40
37658;DHT22;23500;53.268;8.308;2023-05-29T04:18:39;21.80;60.30
37658;DHT22;23500;53.268;8.308;2023-05-29T04:21:05;21.90;60.30
37658;DHT22;23500;53.268;8.308;2023-05-29T04:23:31;21.90;60.20
37658;DHT22;23500;53.268;8.308;2023-05-29T04:25:57;21.90;60.10
37658;DHT22;23500;53.268;8.308;2023-05-29T04:28:23;22.00;60.10
37658;DHT22;23500;53.268;8.308;2023-05-29T04:30:49;22.10;60.00
37658;DHT22;23500;53.268;8.308;2023-05-29T04:33:17;22.10;59.90
37658;DHT22;23500;53.268;8.308;2023-05-29T04:35:43;22.10;59.80
37658;DHT22;23500;53.268;8.308;2023-05-29T04:38:09;22.20;59.80
37658;DHT22;23500;53.268;8.308;2023-05-29T04:40:35;22.20;59.70
37658;DHT22;23500;53.268;8.308;2023-05-29T04:43:02;22.20;59.60
37658;DHT22;23500;53.268;8.308;2023-05-29T04:45:30;22.20;59.60
37658;DHT22;23500;53.268;8.308;2023-05-29T04:47:56;22.20;59.50
37658;DHT22;23500;53.268;8.308;2023-05-29T04:50:22;22.30;59.50
37658;DHT22;23500;53.268;8.308;2023-05-29T04:52:49;22.30;59.50
37658;DHT22;23500;53.268;8.308;2023-05-29T04:55:15;22.30;59.40
37658;DHT22;23500;53.268;8.308;2023-05-29T04:57:42;22.30;59.40
37658;DHT22;23500;53.268;8.308;2023-05-29T05:00:08;22.30;59.40
37658;DHT22;23500;53.268;8.308;2023-05-29T05:02:42;22.40;59.30
37658;DHT22;23500;53.268;8.308;2023-05-29T05:05:08;22.30;59.80
37658;DHT22;23500;53.268;8.308;2023-05-29T05:07:34;22.40;59.30
37658;DHT22;23500;53.268;8.308;2023-05-29T05:10:01;22.40;59.30
37658;DHT22;23500;53.268;8.308;2023-05-29T05:12:26;22.40;59.30
37658;DHT22;23500;53.268;8.308;2023-05-29T05:14:52;22.40;59.30
37658;DHT22;23500;53.268;8.308;2023-05-29T05:17:18;22.40;59.30
37658;DHT22;23500;53.268;8.308;2023-05-29T05:19:44;22.40;59.30
37658;DHT22;23500;53.268;8.308;2023-05-29T05:22:09;22.40;59.30
37658;DHT22;23500;53.268;8.308;2023-05-29T05:24:35;22.40;59.30
37658;DHT22;23500;53.268;8.308;2023-05-29T05:27:01;22.40;59.30
37658;DHT22;23500;53.268;8.308;2023-05-29T05:29:27;22.40;59.30
37658;DHT22;23500;53.268;8.308;2023-05-29T05:31:52;22.40;59.30
37658;DHT22;23500;53.268;8.308;2023-05-29T05:34:18;22.40;59.30
37658;DHT22;23500;53.268;8.308;2023-05-29T05:36:44;22.40;59.30
37658;DHT22;23500;53.268;8.308;2023-05-29T05:39:10;22.40;59.30
37658;DHT22;23500;53.268;8.308;2023-05-29T05:41:36;22.40;59.30
37658;DHT22;23500;53.268;8.308;2023-05-29T05:44:02;22.40;59.30
37658;DHT22;23500;53.268;8.308;2023-05-29T05:46:28;22.40;59.30
37658;DHT22;23500;53.268;8.308;2023-05-29T05:48:54;22.40;59.30
37658;DHT22;23500;53.268;8.308;2023-05-29T05:51:23;22.40;59.30
37658;DHT22;23500;53.268;8.308;2023-05-29T05:53:49;22.40;59.40
37658;DHT22;23500;53.268;8.308;2023-05-29T05:56:14;22.30;59.30
37658;DHT22;23500;53.268;8.308;2023-05-29T05:58:40;22.30;59.30
37658;DHT22;23500;53.268;8.308;2023-05-29T06:01:07;22.40;59.40
37658;DHT22;23500;53.268;8.308;2023-05-29T06:03:34;22.40;59.40
37658;DHT22;23500;53.268;8.308;2023-05-29T06:06:00;22.40;59.40
37658;DHT22;23500;53.268;8.308;2023-05-29T06:08:26;22.30;59.40
37658;DHT22;23500;53.268;8.308;2023-05-29T06:10:52;22.40;59.50
37658;DHT22;23500;53.268;8.308;2023-05-29T06:13:18;22.40;59.50
37658;DHT22;23500;53.268;8.308;2023-05-29T06:15:43;22.40;59.50
37658;DHT22;23500;53.268;8.308;2023-05-29T06:18:09;22.40;59.50
37658;DHT22;23500;53.268;8.308;2023-05-29T06:20:35;22.40;59.50
37658;DHT22;23500;53.268;8.308;2023-05-29T06:23:02;22.40;59.50
37658;DHT22;23500;53.268;8.308;2023-05-29T06:25:27;22.40;59.50
37658;DHT22;23500;53.268;8.308;2023-05-29T06:28:01;22.40;59.50
37658;DHT22;23500;53.268;8.308;2023-05-29T06:30:28;22.50;59.10
37658;DHT22;23500;53.268;8.308;2023-05-29T06:32:54;22.70;58.80
37658;DHT22;23500;53.268;8.308;2023-05-29T06:35:19;22.70;59.10
37658;DHT22;23500;53.268;8.308;2023-05-29T06:37:46;22.70;58.60
37658;DHT22;23500;53.268;8.308;2023-05-29T06:40:15;22.70;58.80
37658;DHT22;23500;53.268;8.308;2023-05-29T06:42:42;22.60;58.90
37658;DHT22;23500;53.268;8.308;2023-05-29T06:45:11;22.50;59.10
37658;DHT22;23500;53.268;8.308;2023-05-29T06:47:39;22.50;59.20
37658;DHT22;23500;53.268;8.308;2023-05-29T06:50:06;22.50;59.20
37658;DHT22;23500;53.268;8.308;2023-05-29T06:52:32;22.50;59.30
37658;DHT22;23500;53.268;8.308;2023-05-29T06:54:58;22.50;59.30
37658;DHT22;23500;53.268;8.308;2023-05-29T06:57:24;22.50;59.40
37658;DHT22;23500;53.268;8.308;2023-05-29T06:59:49;22.50;59.40
37658;DHT22;23500;53.268;8.308;2023-05-29T07:02:15;22.50;59.50
37658;DHT22;23500;53.268;8.308;2023-05-29T07:04:41;22.50;59.40
37658;DHT22;23500;53.268;8.308;2023-05-29T07:07:07;22.40;59.40
37658;DHT22;23500;53.268;8.308;2023-05-29T07:09:32;22.40;59.40
37658;DHT22;23500;53.268;8.308;2023-05-29T07:11:58;22.40;59.50
37658;DHT22;23500;53.268;8.308;2023-05-29T07:14:24;22.50;59.50
37658;DHT22;23500;53.268;8.308;2023-05-29T07:16:50;22.50;59.50
37658;DHT22;23500;53.268;8.308;2023-05-29T07:19:15;22.50;59.60
37658;DHT22;23500;53.268;8.308;2023-05-29T07:21:42;22.40;59.50
37658;DHT22;23500;53.268;8.308;2023-05-29T07:24:08;22.50;59.50
37658;DHT22;23500;53.268;8.308;2023-05-29T07:26:34;22.50;59.50
37658;DHT22;23500;53.268;8.308;2023-05-29T07:29:00;22.50;59.40
37658;DHT22;23500;53.268;8.308;2023-05-29T07:31:25;22.50;59.40
37658;DHT22;23500;53.268;8.308;2023-05-29T07:33:51;22.50;59.30
37658;DHT22;23500;53.268;8.308;2023-05-29T07:36:17;22.50;59.20
37658;DHT22;23500;53.268;8.308;2023-05-29T07:38:43;22.50;58.90
37658;DHT22;23500;53.268;8.308;2023-05-29T07:41:10;22.40;58.90
37658;DHT22;23500;53.268;8.308;2023-05-29T07:43:36;22.40;59.10
37658;DHT22;23500;53.268;8.308;2023-05-29T07:46:01;22.50;59.10
37658;DHT22;23500;53.268;8.308;2023-05-29T07:48:27;22.50;59.10
37658;DHT22;23500;53.268;8.308;2023-05-29T07:50:53;22.50;59.10
37658;DHT22;23500;53.268;8.308;2023-05-29T07:53:19;22.50;59.10
37658;DHT22;23500;53.268;8.308;2023-05-29T07:55:45;22.50;59.10
37658;DHT22;23500;53.268;8.308;2023-05-29T07:58:10;22.50;59.20
37658;DHT22;23500;53.268;8.308;2023-05-29T08:00:37;22.50;59.20
37658;DHT22;23500;53.268;8.308;2023-05-29T08:03:04;22.60;59.30
37658;DHT22;23500;53.268;8.308;2023-05-29T08:05:31;22.60;59.40
37658;DHT22;23500;53.268;8.308;2023-05-29T08:07:59;22.60;60.10
37658;DHT22;23500;53.268;8.308;2023-05-29T08:10:25;22.60;59.40
37658;DHT22;23500;53.268;8.308;2023-05-29T08:12:51;22.60;59.50
37658;DHT22;23500;53.268;8.308;2023-05-29T08:15:18;22.60;59.70
37658;DHT22;23500;53.268;8.308;2023-05-29T08:17:44;22.60;59.70
37658;DHT22;23500;53.268;8.308;2023-05-29T08:20:10;22.70;59.60
37658;DHT22;23500;53.268;8.308;2023-05-29T08:22:36;22.70;59.70
37658;DHT22;23500;53.268;8.308;2023-05-29T08:25:02;22.70;59.80
37658;DHT22;23500;53.268;8.308;2023-05-29T08:27:27;22.70;59.90
37658;DHT22;23500;53.268;8.308;2023-05-29T08:29:53;22.70;60.00
37658;DHT22;23500;53.268;8.308;2023-05-29T08:32:20;22.70;60.20
37658;DHT22;23500;53.268;8.308;2023-05-29T08:34:46;22.70;60.30
37658;DHT22;23500;53.268;8.308;2023-05-29T08:37:12;22.80;60.30
37658;DHT22;23500;53.268;8.308;2023-05-29T08:39:39;22.80;60.30
37658;DHT22;23500;53.268;8.308;2023-05-29T08:42:10;22.80;60.50
37658;DHT22;23500;53.268;8.308;2023-05-29T08:44:39;22.80;60.50
37658;DHT22;23500;53.268;8.308;2023-05-29T08:47:07;22.80;60.50
37658;DHT22;23500;53.268;8.308;2023-05-29T08:49:43;22.80;60.50
37658;DHT22;23500;53.268;8.308;2023-05-29T08:52:22;22.80;60.70
37658;DHT22;23500;53.268;8.308;2023-05-29T08:54:48;22.80;60.70
37658;DHT22;23500;53.268;8.308;2023-05-29T08:57:17;22.80;60.80
37658;DHT22;23500;53.268;8.308;2023-05-29T08:59:44;22.80;60.70
37658;DHT22;23500;53.268;8.308;2023-05-29T09:02:11;22.80;60.80
37658;DHT22;23500;53.268;8.308;2023-05-29T09:04:37;22.80;61.00
37658;DHT22;23500;53.268;8.308;2023-05-29T09:07:04;22.80;61.00
37658;DHT22;23500;53.268;8.308;2023-05-29T09:09:34;22.90;61.20
37658;DHT22;23500;53.268;8.308;2023-05-29T09:12:00;22.90;61.00
37658;DHT22;23500;53.268;8.308;2023-05-29T09:14:38;22.90;61.10
37658;DHT22;23500;53.268;8.308;2023-05-29T09:17:05;22.90;61.00
37658;DHT22;23500;53.268;8.308;2023-05-29T09:19:32;22.90;61.10
37658;DHT22;23500;53.268;8.308;2023-05-29T09:22:12;22.90;61.20
37658;DHT22;23500;53.268;8.308;2023-05-29T09:24:45;23.00;61.30
37658;DHT22;23500;53.268;8.308;2023-05-29T09:27:11;23.00;61.10
37658;DHT22;23500;53.268;8.308;2023-05-29T09:29:38;23.00;61.10
37658;DHT22;23500;53.268;8.308;2023-05-29T09:32:10;23.00;61.10
37658;DHT22;23500;53.268;8.308;2023-05-29T09:34:36;23.00;61.30
37658;DHT22;23500;53.268;8.308;2023-05-29T09:37:04;23.10;61.30
37658;DHT22;23500;53.268;8.308;2023-05-29T09:39:47;23.10;61.30
37658;DHT22;23500;53.268;8.308;2023-05-29T09:42:15;23.10;61.10
37658;DHT22;23500;53.268;8.308;2023-05-29T09:44:42;23.10;61.00
37658;DHT22;23500;53.268;8.308;2023-05-29T09:47:08;23.10;57.70
37658;DHT22;23500;53.268;8.308;2023-05-29T09:49:35;23.00;54.80
37658;DHT22;23500;53.268;8.308;2023-05-29T09:52:06;22.90;53.70
37658;DHT22;23500;53.268;8.308;2023-05-29T09:54:35;22.80;53.10
37658;DHT22;23500;53.268;8.308;2023-05-29T09:57:03;22.80;52.70
37658;DHT22;23500;53.268;8.308;2023-05-29T09:59:30;22.70;52.30
37658;DHT22;23500;53.268;8.308;2023-05-29T10:02:04;22.60;52.30
37658;DHT22;23500;53.268;8.308;2023-05-29T10:04:33;22.60;53.90
37658;DHT22;23500;53.268;8.308;2023-05-29T10:07:12;22.60;54.70
37658;DHT22;23500;53.268;8.308;2023-05-29T10:09:44;22.60;55.10
37658;DHT22;23500;53.268;8.308;2023-05-29T10:12:15;22.70;55.20
37658;DHT22;23500;53.268;8.308;2023-05-29T10:14:44;22.70;55.70
37658;DHT22;23500;53.268;8.308;2023-05-29T10:17:11;22.70;55.80
37658;DHT22;23500;53.268;8.308;2023-05-29T10:19:39;22.70;55.90
37658;DHT22;23500;53.268;8.308;2023-05-29T10:22:05;22.70;55.90
37658;DHT22;23500;53.268;8.308;2023-05-29T10:24:32;22.70;55.70
37658;DHT22;23500;53.268;8.308;2023-05-29T10:26:58;22.70;55.50
37658;DHT22;23500;53.268;8.308;2023-05-29T10:29:34;22.70;55.80
37658;DHT22;23500;53.268;8.308;2023-05-29T10:39:46;22.90;56.00
37658;DHT22;23500;53.268;8.308;2023-05-29T10:42:40;22.90;56.10
37658;DHT22;23500;53.268;8.308;2023-05-29T10:45:07;22.90;56.20
37658;DHT22;23500;53.268;8.308;2023-05-29T10:47:33;22.90;56.30
37658;DHT22;23500;53.268;8.308;2023-05-29T10:50:00;23.00;56.40
37658;DHT22;23500;53.268;8.308;2023-05-29T10:52:35;23.00;56.40
37658;DHT22;23500;53.268;8.308;2023-05-29T10:55:04;23.00;56.50
37658;DHT22;23500;53.268;8.308;2023-05-29T10:57:30;23.10;56.70
37658;DHT22;23500;53.268;8.308;2023-05-29T11:00:07;23.10;56.70
37658;DHT22;23500;53.268;8.308;2023-05-29T11:02:46;23.10;56.80
37658;DHT22;23500;53.268;8.308;2023-05-29T11:05:19;23.20;57.00
37658;DHT22;23500;53.268;8.308;2023-05-29T11:08:00;23.20;57.00
37658;DHT22;23500;53.268;8.308;2023-05-29T11:11:03;23.20;57.00
37658;DHT22;23500;53.268;8.308;2023-05-29T11:13:35;23.20;57.10
37658;DHT22;23500;53.268;8.308;2023-05-29T11:18:47;23.20;57.20
37658;DHT22;23500;53.268;8.308;2023-05-29T11:24:07;23.30;57.30
37658;DHT22;23500;53.268;8.308;2023-05-29T11:26:33;23.30;57.30
37658;DHT22;23500;53.268;8.308;2023-05-29T11:29:03;23.30;57.30
37658;DHT22;23500;53.268;8.308;2023-05-29T11:31:32;23.30;57.40
37658;DHT22;23500;53.268;8.308;2023-05-29T11:34:01;23.30;57.40
37658;DHT22;23500;53.268;8.308;2023-05-29T11:36:31;23.40;57.50
37658;DHT22;23500;53.268;8.308;2023-05-29T11:38:58;23.30;57.50
37658;DHT22;23500;53.268;8.308;2023-05-29T11:41:25;23.30;58.00
37658;DHT22;23500;53.268;8.308;2023-05-29T11:44:01;23.40;57.40
37658;DHT22;23500;53.268;8.308;2023-05-29T11:46:28;23.40;57.50
37658;DHT22;23500;53.268;8.308;2023-05-29T11:48:58;23.40;57.50
37658;DHT22;23500;53.268;8.308;2023-05-29T11:51:24;23.40;57.40
37658;DHT22;23500;53.268;8.308;2023-05-29T11:53:50;23.30;57.20
37658;DHT22;23500;53.268;8.308;2023-05-29T11:56:32;23.40;57.30
37658;DHT22;23500;53.268;8.308;2023-05-29T11:58:59;23.40;56.70
37658;DHT22;23500;53.268;8.308;2023-05-29T12:01:26;23.30;55.50
37658;DHT22;23500;53.268;8.308;2023-05-29T12:03:52;23.30;54.50
37658;DHT22;23500;53.268;8.308;2023-05-29T12:06:31;23.20;53.40
37658;DHT22;23500;53.268;8.308;2023-05-29T12:08:58;23.20;53.10
37658;DHT22;23500;53.268;8.308;2023-05-29T12:11:24;23.10;53.80
37658;DHT22;23500;53.268;8.308;2023-05-29T12:13:58;23.10;54.50
37658;DHT22;23500;53.268;8.308;2023-05-29T12:16:28;23.10;55.00
37658;DHT22;23500;53.268;8.308;2023-05-29T12:18:54;23.20;55.20
37658;DHT22;23500;53.268;8.308;2023-05-29T12:21:21;23.20;55.00
37658;DHT22;23500;53.268;8.308;2023-05-29T12:23:48;23.20;55.00
37658;DHT22;23500;53.268;8.308;2023-05-29T12:26:14;23.20;55.00
37658;DHT22;23500;53.268;8.308;2023-05-29T12:28:44;23.20;55.10
37658;DHT22;23500;53.268;8.308;2023-05-29T12:31:10;23.20;55.30
37658;DHT22;23500;53.268;8.308;2023-05-29T12:33:42;23.30;55.50
37658;DHT22;23500;53.268;8.308;2023-05-29T12:36:09;23.30;55.60
37658;DHT22;23500;53.268;8.308;2023-05-29T12:38:47;23.30;55.50
37658;DHT22;23500;53.268;8.308;2023-05-29T12:41:31;23.30;55.60
37658;DHT22;23500;53.268;8.308;2023-05-29T12:44:00;23.30;55.40
37658;DHT22;23500;53.268;8.308;2023-05-29T12:46:27;23.30;54.80
37658;DHT22;23500;53.268;8.308;2023-05-29T12:48:56;23.20;54.20
37658;DHT22;23500;53.268;8.308;2023-05-29T12:51:27;23.20;53.90
37658;DHT22;23500;53.268;8.308;2023-05-29T12:53:52;23.20;53.80
37658;DHT22;23500;53.268;8.308;2023-05-29T12:56:22;23.10;53.50
37658;DHT22;23500;53.268;8.308;2023-05-29T12:58:49;23.10;53.70
37658;DHT22;23500;53.268;8.308;2023-05-29T13:01:15;23.10;53.60
37658;DHT22;23500;53.268;8.308;2023-05-29T13:03:41;23.10;53.40
37658;DHT22;23500;53.268;8.308;2023-05-29T13:06:07;23.10;53.40
37658;DHT22;23500;53.268;8.308;2023-05-29T13:08:33;23.00;53.50
37658;DHT22;23500;53.268;8.308;2023-05-29T13:10:59;23.00;53.40
37658;DHT22;23500;53.268;8.308;2023-05-29T13:13:24;23.00;53.30
37658;DHT22;23500;53.268;8.308;2023-05-29T13:15:50;23.00;53.80
37658;DHT22;23500;53.268;8.308;2023-05-29T13:18:16;23.00;53.80
37658;DHT22;23500;53.268;8.308;2023-05-29T13:20:41;23.00;54.00
37658;DHT22;23500;53.268;8.308;2023-05-29T13:23:07;23.00;53.80
37658;DHT22;23500;53.268;8.308;2023-05-29T13:25:34;23.00;53.50
37658;DHT22;23500;53.268;8.308;2023-05-29T13:28:00;23.00;53.20
37658;DHT22;23500;53.268;8.308;2023-05-29T13:30:26;23.00;53.30
37658;DHT22;23500;53.268;8.308;2023-05-29T13:32:52;23.00;53.50
37658;DHT22;23500;53.268;8.308;2023-05-29T13:35:18;23.00;53.30
37658;DHT22;23500;53.268;8.308;2023-05-29T13:37:44;23.00;53.40
37658;DHT22;23500;53.268;8.308;2023-05-29T13:40:11;23.00;53.50
37658;DHT22;23500;53.268;8.308;2023-05-29T13:42:39;23.00;53.40
37658;DHT22;23500;53.268;8.308;2023-05-29T13:45:05;23.00;52.80
37658;DHT22;23500;53.268;8.308;2023-05-29T13:47:33;23.00;52.90
37658;DHT22;23500;53.268;8.308;2023-05-29T13:49:59;23.10;52.80
37658;DHT22;23500;53.268;8.308;2023-05-29T13:52:26;23.10;52.80
37658;DHT22;23500;53.268;8.308;2023-05-29T13:54:51;23.10;52.80
37658;DHT22;23500;53.268;8.308;2023-05-29T13:57:17;23.20;52.90
37658;DHT22;23500;53.268;8.308;2023-05-29T13:59:43;23.20;52.90
37658;DHT22;23500;53.268;8.308;2023-05-29T14:02:09;23.20;53.00
37658;DHT22;23500;53.268;8.308;2023-05-29T14:04:34;23.20;53.00
37658;DHT22;23500;53.268;8.308;2023-05-29T14:07:00;23.30;53.20
37658;DHT22;23500;53.268;8.308;2023-05-29T14:09:26;23.30;53.90
37658;DHT22;23500;53.268;8.308;2023-05-29T14:11:58;23.30;53.50
37658;DHT22;23500;53.268;8.308;2023-05-29T14:14:24;23.20;53.60
37658;DHT22;23500;53.268;8.308;2023-05-29T14:16:50;23.20;53.20
37658;DHT22;23500;53.268;8.308;2023-05-29T14:19:17;23.20;53.70
37658;DHT22;23500;53.268;8.308;2023-05-29T14:21:43;23.20;53.30
37658;DHT22;23500;53.268;8.308;2023-05-29T14:24:09;23.20;53.20
37658;DHT22;23500;53.268;8.308;2023-05-29T14:26:35;23.20;53.10
37658;DHT22;23500;53.268;8.308;2023-05-29T14:29:02;23.10;52.80
37658;DHT22;23500;53.268;8.308;2023-05-29T14:31:28;23.10;52.50
37658;DHT22;23500;53.268;8.308;2023-05-29T14:33:53;23.10;52.50
37658;DHT22;23500;53.268;8.308;2023-05-29T14:36:19;23.10;52.40
37658;DHT22;23500;53.268;8.308;2023-05-29T14:38:45;23.10;52.30
37658;DHT22;23500;53.268;8.308;2023-05-29T14:41:11;23.10;52.40
37658;DHT22;23500;53.268;8.308;2023-05-29T14:43:42;23.10;52.20
37658;DHT22;23500;53.268;8.308;2023-05-29T14:46:08;23.10;52.20
37658;DHT22;23500;53.268;8.308;2023-05-29T14:48:34;23.10;52.30
37658;DHT22;23500;53.268;8.308;2023-05-29T14:51:00;23.10;52.50
37658;DHT22;23500;53.268;8.308;2023-05-29T14:53:26;23.10;52.30
37658;DHT22;23500;53.268;8.308;2023-05-29T14:55:52;23.10;52.20
37658;DHT22;23500;53.268;8.308;2023-05-29T14:58:19;23.10;52.20
37658;DHT22;23500;53.268;8.308;2023-05-29T15:00:44;23.10;52.10
37658;DHT22;23500;53.268;8.308;2023-05-29T15:03:10;23.10;52.10
37658;DHT22;23500;53.268;8.308;2023-05-29T15:05:36;23.10;52.00
37658;DHT22;23500;53.268;8.308;2023-05-29T15:08:02;23.10;51.50
37658;DHT22;23500;53.268;8.308;2023-05-29T15:10:28;23.10;51.30
37658;DHT22;23500;53.268;8.308;2023-05-29T15:12:54;23.10;51.40
37658;DHT22;23500;53.268;8.308;2023-05-29T15:15:26;23.10;51.10
37658;DHT22;23500;53.268;8.308;2023-05-29T15:17:53;23.10;51.50
37658;DHT22;23500;53.268;8.308;2023-05-29T15:20:26;23.10;51.40
37658;DHT22;23500;53.268;8.308;2023-05-29T15:22:52;23.10;51.50
37658;DHT22;23500;53.268;8.308;2023-05-29T15:25:19;23.10;51.10
37658;DHT22;23500;53.268;8.308;2023-05-29T15:27:45;23.10;50.90
37658;DHT22;23500;53.268;8.308;2023-05-29T15:30:12;23.10;50.90
37658;DHT22;23500;53.268;8.308;2023-05-29T15:32:39;23.10;50.50
37658;DHT22;23500;53.268;8.308;2023-05-29T15:35:07;23.10;50.80
37658;DHT22;23500;53.268;8.308;2023-05-29T15:37:33;23.10;50.70
37658;DHT22;23500;53.268;8.308;2023-05-29T15:39:59;23.10;50.20
37658;DHT22;23500;53.268;8.308;2023-05-29T15:42:25;23.10;50.70
37658;DHT22;23500;53.268;8.308;2023-05-29T15:44:51;23.10;49.70
37658;DHT22;23500;53.268;8.308;2023-05-29T15:47:16;23.10;49.40
37658;DHT22;23500;53.268;8.308;2023-05-29T15:49:42;23.10;49.00